Terminal Aerodrome Forecast
Issued by NWS

Home | Current Version | Previous Version | Graphics & Text | Print | Product List | Glossary On
Versions: 1 2 3 4 5 6 7 8 9 10 11 12 13 14 15 16 17 18 19 20 21 22 23 24 25 26
000
FTUS42 KMHX 010535
TAFPGV
TAF
KPGV 010535Z 0106/0206 00000KT 3SM BR OVC007
     FM010730 00000KT 1/2SM FG VV003
     FM011300 34003KT P6SM BKN009
     FM011430 36003KT P6SM SCT025
      AMD LTD TO CLD VIS AND WIND=

USA.gov is the U.S. government's official web portal to all federal, state and local government web resources and services.